sensor_id;sensor_type;location;lat;lon;timestamp;P1;durP1;ratioP1;P2;durP2;ratioP2
19339;SDS011;9804;52.350;6.684;2023-11-21T00:01:44;96.13;;;30.80;;
19339;SDS011;9804;52.350;6.684;2023-11-21T00:04:09;79.65;;;28.20;;
19339;SDS011;9804;52.350;6.684;2023-11-21T00:06:35;98.35;;;31.35;;
19339;SDS011;9804;52.350;6.684;2023-11-21T00:09:00;87.93;;;31.35;;
19339;SDS011;9804;52.350;6.684;2023-11-21T00:11:25;100.65;;;30.55;;
19339;SDS011;9804;52.350;6.684;2023-11-21T00:13:51;103.50;;;30.75;;
19339;SDS011;9804;52.350;6.684;2023-11-21T00:16:16;88.55;;;29.67;;
19339;SDS011;9804;52.350;6.684;2023-11-21T00:18:42;99.68;;;30.38;;
19339;SDS011;9804;52.350;6.684;2023-11-21T00:21:08;88.20;;;30.58;;
19339;SDS011;9804;52.350;6.684;2023-11-21T00:23:34;88.20;;;30.48;;
19339;SDS011;9804;52.350;6.684;2023-11-21T00:26:00;93.73;;;29.77;;
19339;SDS011;9804;52.350;6.684;2023-11-21T00:28:26;97.95;;;30.77;;
19339;SDS011;9804;52.350;6.684;2023-11-21T00:30:51;81.20;;;28.75;;
19339;SDS011;9804;52.350;6.684;2023-11-21T00:33:17;76.95;;;29.27;;
19339;SDS011;9804;52.350;6.684;2023-11-21T00:35:42;91.13;;;30.27;;
19339;SDS011;9804;52.350;6.684;2023-11-21T00:38:07;91.63;;;29.98;;
19339;SDS011;9804;52.350;6.684;2023-11-21T00:40:36;86.53;;;31.13;;
19339;SDS011;9804;52.350;6.684;2023-11-21T00:43:02;73.72;;;26.17;;
19339;SDS011;9804;52.350;6.684;2023-11-21T00:45:28;82.82;;;30.27;;
19339;SDS011;9804;52.350;6.684;2023-11-21T00:47:53;101.80;;;31.33;;
19339;SDS011;9804;52.350;6.684;2023-11-21T00:50:19;85.65;;;29.63;;
19339;SDS011;9804;52.350;6.684;2023-11-21T00:52:44;90.10;;;30.42;;
19339;SDS011;9804;52.350;6.684;2023-11-21T00:55:10;92.20;;;31.20;;
19339;SDS011;9804;52.350;6.684;2023-11-21T00:57:36;89.00;;;31.35;;
19339;SDS011;9804;52.350;6.684;2023-11-21T01:00:02;89.05;;;31.83;;
19339;SDS011;9804;52.350;6.684;2023-11-21T01:02:32;93.55;;;31.50;;
19339;SDS011;9804;52.350;6.684;2023-11-21T01:04:58;90.30;;;30.50;;
19339;SDS011;9804;52.350;6.684;2023-11-21T01:07:23;91.95;;;30.85;;
19339;SDS011;9804;52.350;6.684;2023-11-21T01:09:49;92.57;;;31.92;;
19339;SDS011;9804;52.350;6.684;2023-11-21T01:12:14;89.88;;;31.63;;
19339;SDS011;9804;52.350;6.684;2023-11-21T01:14:40;83.32;;;30.55;;
19339;SDS011;9804;52.350;6.684;2023-11-21T01:17:05;85.90;;;32.13;;
19339;SDS011;9804;52.350;6.684;2023-11-21T01:19:31;96.55;;;31.90;;
19339;SDS011;9804;52.350;6.684;2023-11-21T01:21:56;93.20;;;31.45;;
19339;SDS011;9804;52.350;6.684;2023-11-21T01:24:23;94.60;;;32.72;;
19339;SDS011;9804;52.350;6.684;2023-11-21T01:26:48;95.28;;;32.00;;
19339;SDS011;9804;52.350;6.684;2023-11-21T01:29:14;91.75;;;32.40;;
19339;SDS011;9804;52.350;6.684;2023-11-21T01:31:40;95.28;;;32.17;;
19339;SDS011;9804;52.350;6.684;2023-11-21T01:34:06;86.25;;;32.70;;
19339;SDS011;9804;52.350;6.684;2023-11-21T01:36:32;89.72;;;33.03;;
19339;SDS011;9804;52.350;6.684;2023-11-21T01:38:58;94.25;;;33.28;;
19339;SDS011;9804;52.350;6.684;2023-11-21T01:41:26;87.28;;;33.10;;
19339;SDS011;9804;52.350;6.684;2023-11-21T01:43:53;86.80;;;32.00;;
19339;SDS011;9804;52.350;6.684;2023-11-21T01:46:20;89.13;;;32.78;;
19339;SDS011;9804;52.350;6.684;2023-11-21T01:48:48;92.10;;;33.35;;
19339;SDS011;9804;52.350;6.684;2023-11-21T01:51:13;95.05;;;33.10;;
19339;SDS011;9804;52.350;6.684;2023-11-21T01:53:40;91.03;;;32.67;;
19339;SDS011;9804;52.350;6.684;2023-11-21T01:56:06;91.88;;;33.20;;
19339;SDS011;9804;52.350;6.684;2023-11-21T01:58:33;93.53;;;34.15;;
19339;SDS011;9804;52.350;6.684;2023-11-21T02:00:59;91.57;;;33.88;;
19339;SDS011;9804;52.350;6.684;2023-11-21T02:03:24;97.30;;;34.13;;
19339;SDS011;9804;52.350;6.684;2023-11-21T02:05:51;98.20;;;32.88;;
19339;SDS011;9804;52.350;6.684;2023-11-21T02:08:18;84.10;;;32.00;;
19339;SDS011;9804;52.350;6.684;2023-11-21T02:10:44;97.78;;;34.28;;
19339;SDS011;9804;52.350;6.684;2023-11-21T02:13:10;77.68;;;30.48;;
19339;SDS011;9804;52.350;6.684;2023-11-21T02:15:36;92.00;;;30.58;;
19339;SDS011;9804;52.350;6.684;2023-11-21T02:18:03;93.97;;;33.47;;
19339;SDS011;9804;52.350;6.684;2023-11-21T02:20:31;95.20;;;33.15;;
19339;SDS011;9804;52.350;6.684;2023-11-21T02:22:59;92.63;;;32.95;;
19339;SDS011;9804;52.350;6.684;2023-11-21T02:27:55;93.30;;;32.38;;
19339;SDS011;9804;52.350;6.684;2023-11-21T02:30:25;88.00;;;31.40;;
19339;SDS011;9804;52.350;6.684;2023-11-21T02:32:51;111.28;;;35.10;;
19339;SDS011;9804;52.350;6.684;2023-11-21T02:35:19;89.85;;;32.55;;
19339;SDS011;9804;52.350;6.684;2023-11-21T02:37:50;93.23;;;31.87;;
19339;SDS011;9804;52.350;6.684;2023-11-21T02:40:16;91.63;;;33.05;;
19339;SDS011;9804;52.350;6.684;2023-11-21T02:42:43;108.75;;;33.92;;
19339;SDS011;9804;52.350;6.684;2023-11-21T02:45:09;100.10;;;33.05;;
19339;SDS011;9804;52.350;6.684;2023-11-21T02:47:37;97.90;;;32.78;;
19339;SDS011;9804;52.350;6.684;2023-11-21T02:50:03;89.22;;;31.48;;
19339;SDS011;9804;52.350;6.684;2023-11-21T02:52:29;101.90;;;34.58;;
19339;SDS011;9804;52.350;6.684;2023-11-21T02:54:54;95.15;;;30.67;;
19339;SDS011;9804;52.350;6.684;2023-11-21T02:57:20;92.25;;;34.55;;
19339;SDS011;9804;52.350;6.684;2023-11-21T02:59:45;97.25;;;30.05;;
19339;SDS011;9804;52.350;6.684;2023-11-21T03:02:10;93.40;;;31.65;;
19339;SDS011;9804;52.350;6.684;2023-11-21T03:04:36;110.05;;;34.40;;
19339;SDS011;9804;52.350;6.684;2023-11-21T03:07:01;94.97;;;33.22;;
19339;SDS011;9804;52.350;6.684;2023-11-21T03:09:26;99.78;;;33.97;;
19339;SDS011;9804;52.350;6.684;2023-11-21T03:11:55;100.53;;;34.08;;
19339;SDS011;9804;52.350;6.684;2023-11-21T03:14:20;80.22;;;32.13;;
19339;SDS011;9804;52.350;6.684;2023-11-21T03:16:47;97.07;;;31.80;;
19339;SDS011;9804;52.350;6.684;2023-11-21T03:19:13;91.28;;;32.00;;
19339;SDS011;9804;52.350;6.684;2023-11-21T03:21:40;91.38;;;33.05;;
19339;SDS011;9804;52.350;6.684;2023-11-21T03:24:05;120.75;;;36.40;;
19339;SDS011;9804;52.350;6.684;2023-11-21T03:26:32;95.05;;;32.78;;
19339;SDS011;9804;52.350;6.684;2023-11-21T03:28:57;109.25;;;35.05;;
19339;SDS011;9804;52.350;6.684;2023-11-21T03:31:23;102.60;;;34.92;;
19339;SDS011;9804;52.350;6.684;2023-11-21T03:33:48;95.65;;;31.88;;
19339;SDS011;9804;52.350;6.684;2023-11-21T03:36:13;89.85;;;34.05;;
19339;SDS011;9804;52.350;6.684;2023-11-21T03:38:43;98.95;;;34.45;;
19339;SDS011;9804;52.350;6.684;2023-11-21T03:41:08;110.95;;;35.55;;
19339;SDS011;9804;52.350;6.684;2023-11-21T03:43:36;131.85;;;36.22;;
19339;SDS011;9804;52.350;6.684;2023-11-21T03:46:02;145.60;;;35.85;;
19339;SDS011;9804;52.350;6.684;2023-11-21T03:48:28;127.22;;;35.67;;
19339;SDS011;9804;52.350;6.684;2023-11-21T03:50:54;126.00;;;35.97;;
19339;SDS011;9804;52.350;6.684;2023-11-21T03:53:19;97.47;;;35.30;;
19339;SDS011;9804;52.350;6.684;2023-11-21T03:55:44;101.05;;;35.08;;
19339;SDS011;9804;52.350;6.684;2023-11-21T03:58:10;100.03;;;37.08;;
19339;SDS011;9804;52.350;6.684;2023-11-21T04:00:35;108.35;;;36.15;;
19339;SDS011;9804;52.350;6.684;2023-11-21T04:03:00;113.43;;;36.90;;
19339;SDS011;9804;52.350;6.684;2023-11-21T04:05:26;123.28;;;37.08;;
19339;SDS011;9804;52.350;6.684;2023-11-21T04:07:51;94.88;;;32.75;;
19339;SDS011;9804;52.350;6.684;2023-11-21T04:10:17;128.10;;;39.55;;
19339;SDS011;9804;52.350;6.684;2023-11-21T04:12:43;135.88;;;38.38;;
19339;SDS011;9804;52.350;6.684;2023-11-21T04:15:08;124.65;;;38.13;;
19339;SDS011;9804;52.350;6.684;2023-11-21T04:17:34;97.82;;;34.53;;
19339;SDS011;9804;52.350;6.684;2023-11-21T04:20:01;92.35;;;32.97;;
19339;SDS011;9804;52.350;6.684;2023-11-21T04:22:27;89.10;;;33.05;;
19339;SDS011;9804;52.350;6.684;2023-11-21T04:24:52;80.35;;;31.90;;
19339;SDS011;9804;52.350;6.684;2023-11-21T04:27:20;101.13;;;35.67;;
19339;SDS011;9804;52.350;6.684;2023-11-21T04:29:46;97.88;;;35.10;;
19339;SDS011;9804;52.350;6.684;2023-11-21T04:32:11;114.60;;;36.45;;
19339;SDS011;9804;52.350;6.684;2023-11-21T04:34:37;83.68;;;32.58;;
19339;SDS011;9804;52.350;6.684;2023-11-21T04:37:03;120.40;;;37.85;;
19339;SDS011;9804;52.350;6.684;2023-11-21T04:39:31;116.15;;;37.83;;
19339;SDS011;9804;52.350;6.684;2023-11-21T04:41:56;113.72;;;38.50;;
19339;SDS011;9804;52.350;6.684;2023-11-21T04:44:22;106.22;;;37.00;;
19339;SDS011;9804;52.350;6.684;2023-11-21T04:46:47;113.35;;;35.63;;
19339;SDS011;9804;52.350;6.684;2023-11-21T04:49:14;118.07;;;34.42;;
19339;SDS011;9804;52.350;6.684;2023-11-21T04:51:39;122.25;;;34.90;;
19339;SDS011;9804;52.350;6.684;2023-11-21T04:54:04;125.00;;;36.70;;
19339;SDS011;9804;52.350;6.684;2023-11-21T04:56:30;120.78;;;35.92;;
19339;SDS011;9804;52.350;6.684;2023-11-21T04:58:56;122.90;;;36.35;;
19339;SDS011;9804;52.350;6.684;2023-11-21T05:01:21;123.85;;;35.72;;
19339;SDS011;9804;52.350;6.684;2023-11-21T05:03:47;122.72;;;36.60;;
19339;SDS011;9804;52.350;6.684;2023-11-21T05:06:13;135.48;;;37.22;;
19339;SDS011;9804;52.350;6.684;2023-11-21T05:08:39;101.57;;;33.75;;
19339;SDS011;9804;52.350;6.684;2023-11-21T05:11:04;112.68;;;35.22;;
19339;SDS011;9804;52.350;6.684;2023-11-21T05:13:33;114.70;;;35.05;;
19339;SDS011;9804;52.350;6.684;2023-11-21T05:15:59;114.25;;;35.42;;
19339;SDS011;9804;52.350;6.684;2023-11-21T05:18:24;137.13;;;36.72;;
19339;SDS011;9804;52.350;6.684;2023-11-21T05:20:54;129.65;;;36.08;;
19339;SDS011;9804;52.350;6.684;2023-11-21T05:23:20;119.20;;;35.97;;
19339;SDS011;9804;52.350;6.684;2023-11-21T05:25:46;107.80;;;33.03;;
19339;SDS011;9804;52.350;6.684;2023-11-21T05:28:11;120.18;;;34.15;;
19339;SDS011;9804;52.350;6.684;2023-11-21T05:30:37;120.43;;;35.53;;
19339;SDS011;9804;52.350;6.684;2023-11-21T05:33:04;114.45;;;34.22;;
19339;SDS011;9804;52.350;6.684;2023-11-21T05:35:29;122.38;;;33.95;;
19339;SDS011;9804;52.350;6.684;2023-11-21T05:37:55;104.75;;;35.58;;
19339;SDS011;9804;52.350;6.684;2023-11-21T05:40:20;89.97;;;32.15;;
19339;SDS011;9804;52.350;6.684;2023-11-21T05:42:47;111.93;;;36.38;;
19339;SDS011;9804;52.350;6.684;2023-11-21T05:45:13;86.75;;;34.05;;
19339;SDS011;9804;52.350;6.684;2023-11-21T05:47:42;111.82;;;37.00;;
19339;SDS011;9804;52.350;6.684;2023-11-21T05:50:09;107.20;;;35.80;;
19339;SDS011;9804;52.350;6.684;2023-11-21T05:52:37;137.52;;;36.60;;
19339;SDS011;9804;52.350;6.684;2023-11-21T05:55:04;118.25;;;35.20;;
19339;SDS011;9804;52.350;6.684;2023-11-21T05:57:32;132.50;;;39.40;;
19339;SDS011;9804;52.350;6.684;2023-11-21T06:00:01;133.93;;;39.28;;
19339;SDS011;9804;52.350;6.684;2023-11-21T06:02:28;130.82;;;39.33;;
19339;SDS011;9804;52.350;6.684;2023-11-21T06:04:53;115.80;;;38.38;;
19339;SDS011;9804;52.350;6.684;2023-11-21T06:07:19;131.57;;;41.05;;
19339;SDS011;9804;52.350;6.684;2023-11-21T06:09:44;120.53;;;39.00;;
19339;SDS011;9804;52.350;6.684;2023-11-21T06:12:09;127.85;;;40.58;;
19339;SDS011;9804;52.350;6.684;2023-11-21T06:14:35;128.82;;;39.35;;
19339;SDS011;9804;52.350;6.684;2023-11-21T06:17:01;130.55;;;39.58;;
19339;SDS011;9804;52.350;6.684;2023-11-21T06:19:27;117.97;;;38.58;;
19339;SDS011;9804;52.350;6.684;2023-11-21T06:21:52;111.43;;;38.72;;
19339;SDS011;9804;52.350;6.684;2023-11-21T06:24:18;120.18;;;39.03;;
19339;SDS011;9804;52.350;6.684;2023-11-21T06:26:43;123.90;;;39.45;;
19339;SDS011;9804;52.350;6.684;2023-11-21T06:29:09;137.45;;;38.90;;
19339;SDS011;9804;52.350;6.684;2023-11-21T06:31:34;89.75;;;34.67;;
19339;SDS011;9804;52.350;6.684;2023-11-21T06:34:00;107.57;;;37.63;;
19339;SDS011;9804;52.350;6.684;2023-11-21T06:36:25;127.43;;;37.42;;
19339;SDS011;9804;52.350;6.684;2023-11-21T06:38:51;104.90;;;36.67;;
19339;SDS011;9804;52.350;6.684;2023-11-21T06:41:17;106.80;;;37.15;;
19339;SDS011;9804;52.350;6.684;2023-11-21T06:43:42;112.90;;;37.40;;
19339;SDS011;9804;52.350;6.684;2023-11-21T06:46:11;102.55;;;37.13;;
19339;SDS011;9804;52.350;6.684;2023-11-21T06:48:39;113.63;;;39.20;;
19339;SDS011;9804;52.350;6.684;2023-11-21T06:51:07;112.75;;;38.00;;
19339;SDS011;9804;52.350;6.684;2023-11-21T06:53:32;114.55;;;37.70;;
19339;SDS011;9804;52.350;6.684;2023-11-21T06:55:57;121.50;;;38.83;;
19339;SDS011;9804;52.350;6.684;2023-11-21T06:58:23;116.55;;;40.20;;
19339;SDS011;9804;52.350;6.684;2023-11-21T07:00:48;103.55;;;37.67;;
19339;SDS011;9804;52.350;6.684;2023-11-21T07:03:15;117.72;;;39.65;;
19339;SDS011;9804;52.350;6.684;2023-11-21T07:05:40;105.32;;;37.10;;
19339;SDS011;9804;52.350;6.684;2023-11-21T07:08:06;106.15;;;36.67;;
19339;SDS011;9804;52.350;6.684;2023-11-21T07:10:32;114.30;;;36.55;;
19339;SDS011;9804;52.350;6.684;2023-11-21T07:12:58;93.68;;;36.35;;
19339;SDS011;9804;52.350;6.684;2023-11-21T07:15:23;90.70;;;35.20;;
19339;SDS011;9804;52.350;6.684;2023-11-21T07:17:50;106.50;;;36.50;;
19339;SDS011;9804;52.350;6.684;2023-11-21T07:20:16;100.88;;;34.30;;
19339;SDS011;9804;52.350;6.684;2023-11-21T07:22:42;107.05;;;34.53;;
19339;SDS011;9804;52.350;6.684;2023-11-21T07:25:07;104.50;;;34.65;;
19339;SDS011;9804;52.350;6.684;2023-11-21T07:27:34;99.35;;;32.97;;
19339;SDS011;9804;52.350;6.684;2023-11-21T07:30:01;91.15;;;33.67;;
19339;SDS011;9804;52.350;6.684;2023-11-21T07:32:29;101.88;;;34.83;;
19339;SDS011;9804;52.350;6.684;2023-11-21T07:34:55;102.50;;;34.67;;
19339;SDS011;9804;52.350;6.684;2023-11-21T07:37:23;108.63;;;35.50;;
19339;SDS011;9804;52.350;6.684;2023-11-21T07:39:48;115.97;;;35.35;;
19339;SDS011;9804;52.350;6.684;2023-11-21T07:42:14;124.43;;;36.58;;
19339;SDS011;9804;52.350;6.684;2023-11-21T07:44:39;107.47;;;34.22;;
19339;SDS011;9804;52.350;6.684;2023-11-21T07:47:04;94.80;;;35.20;;
19339;SDS011;9804;52.350;6.684;2023-11-21T07:49:30;101.43;;;34.97;;
19339;SDS011;9804;52.350;6.684;2023-11-21T07:51:55;100.95;;;34.17;;
19339;SDS011;9804;52.350;6.684;2023-11-21T07:54:21;120.95;;;36.53;;
19339;SDS011;9804;52.350;6.684;2023-11-21T07:56:46;107.95;;;34.97;;
19339;SDS011;9804;52.350;6.684;2023-11-21T07:59:12;98.20;;;36.83;;
19339;SDS011;9804;52.350;6.684;2023-11-21T08:01:39;99.13;;;35.70;;
19339;SDS011;9804;52.350;6.684;2023-11-21T08:04:05;127.93;;;36.95;;
19339;SDS011;9804;52.350;6.684;2023-11-21T08:06:31;118.03;;;37.20;;
19339;SDS011;9804;52.350;6.684;2023-11-21T08:08:58;126.70;;;39.78;;
19339;SDS011;9804;52.350;6.684;2023-11-21T08:11:23;127.88;;;38.22;;
19339;SDS011;9804;52.350;6.684;2023-11-21T08:13:49;113.53;;;36.75;;
19339;SDS011;9804;52.350;6.684;2023-11-21T08:16:14;123.32;;;38.42;;
19339;SDS011;9804;52.350;6.684;2023-11-21T08:18:40;124.10;;;36.70;;
19339;SDS011;9804;52.350;6.684;2023-11-21T08:21:06;129.77;;;39.20;;
19339;SDS011;9804;52.350;6.684;2023-11-21T08:23:32;130.20;;;38.88;;
19339;SDS011;9804;52.350;6.684;2023-11-21T08:25:59;120.28;;;39.20;;
19339;SDS011;9804;52.350;6.684;2023-11-21T08:28:24;120.85;;;38.55;;
19339;SDS011;9804;52.350;6.684;2023-11-21T08:30:51;130.98;;;39.83;;
19339;SDS011;9804;52.350;6.684;2023-11-21T08:33:17;114.60;;;36.60;;
19339;SDS011;9804;52.350;6.684;2023-11-21T08:35:43;126.03;;;39.95;;
19339;SDS011;9804;52.350;6.684;2023-11-21T08:38:10;120.35;;;37.67;;
19339;SDS011;9804;52.350;6.684;2023-11-21T08:40:37;123.65;;;39.03;;
19339;SDS011;9804;52.350;6.684;2023-11-21T08:43:03;115.80;;;38.40;;
19339;SDS011;9804;52.350;6.684;2023-11-21T08:45:29;129.18;;;38.00;;
19339;SDS011;9804;52.350;6.684;2023-11-21T08:47:55;144.43;;;40.38;;
19339;SDS011;9804;52.350;6.684;2023-11-21T08:50:21;112.60;;;38.40;;
19339;SDS011;9804;52.350;6.684;2023-11-21T08:52:47;112.38;;;37.70;;
19339;SDS011;9804;52.350;6.684;2023-11-21T08:55:12;116.28;;;37.17;;
19339;SDS011;9804;52.350;6.684;2023-11-21T08:57:39;116.93;;;36.10;;
19339;SDS011;9804;52.350;6.684;2023-11-21T09:00:06;107.38;;;35.42;;
19339;SDS011;9804;52.350;6.684;2023-11-21T09:02:42;112.47;;;36.97;;
19339;SDS011;9804;52.350;6.684;2023-11-21T09:05:09;103.40;;;37.00;;
19339;SDS011;9804;52.350;6.684;2023-11-21T09:07:35;74.97;;;32.50;;
19339;SDS011;9804;52.350;6.684;2023-11-21T09:10:02;99.97;;;35.35;;
19339;SDS011;9804;52.350;6.684;2023-11-21T09:12:28;99.25;;;34.38;;
19339;SDS011;9804;52.350;6.684;2023-11-21T09:14:54;81.30;;;31.30;;
19339;SDS011;9804;52.350;6.684;2023-11-21T09:17:19;77.35;;;31.33;;
19339;SDS011;9804;52.350;6.684;2023-11-21T09:19:45;72.55;;;28.85;;
19339;SDS011;9804;52.350;6.684;2023-11-21T09:22:14;65.50;;;27.38;;
19339;SDS011;9804;52.350;6.684;2023-11-21T09:24:40;77.35;;;30.08;;
19339;SDS011;9804;52.350;6.684;2023-11-21T09:27:06;76.88;;;29.65;;
19339;SDS011;9804;52.350;6.684;2023-11-21T09:29:31;75.10;;;29.13;;
19339;SDS011;9804;52.350;6.684;2023-11-21T09:31:59;74.68;;;29.17;;
19339;SDS011;9804;52.350;6.684;2023-11-21T09:34:26;64.30;;;27.23;;
19339;SDS011;9804;52.350;6.684;2023-11-21T09:36:51;66.97;;;27.73;;
19339;SDS011;9804;52.350;6.684;2023-11-21T09:39:17;65.60;;;27.65;;
19339;SDS011;9804;52.350;6.684;2023-11-21T09:41:52;62.97;;;26.95;;
19339;SDS011;9804;52.350;6.684;2023-11-21T09:47:07;61.28;;;27.08;;
19339;SDS011;9804;52.350;6.684;2023-11-21T09:49:35;59.83;;;26.85;;
19339;SDS011;9804;52.350;6.684;2023-11-21T09:52:03;53.90;;;24.33;;
19339;SDS011;9804;52.350;6.684;2023-11-21T09:54:31;52.33;;;25.85;;
19339;SDS011;9804;52.350;6.684;2023-11-21T09:57:00;54.33;;;25.60;;
19339;SDS011;9804;52.350;6.684;2023-11-21T09:59:25;54.70;;;25.33;;
19339;SDS011;9804;52.350;6.684;2023-11-21T10:01:55;50.00;;;24.15;;
19339;SDS011;9804;52.350;6.684;2023-11-21T10:04:23;46.88;;;24.13;;
19339;SDS011;9804;52.350;6.684;2023-11-21T10:06:48;54.88;;;24.45;;
19339;SDS011;9804;52.350;6.684;2023-11-21T10:09:15;47.40;;;23.35;;
19339;SDS011;9804;52.350;6.684;2023-11-21T10:11:41;57.38;;;25.33;;
19339;SDS011;9804;52.350;6.684;2023-11-21T10:14:10;56.05;;;24.95;;
19339;SDS011;9804;52.350;6.684;2023-11-21T10:16:37;60.83;;;25.05;;
19339;SDS011;9804;52.350;6.684;2023-11-21T10:19:04;58.42;;;24.52;;
19339;SDS011;9804;52.350;6.684;2023-11-21T10:21:32;56.13;;;23.73;;
19339;SDS011;9804;52.350;6.684;2023-11-21T10:23:58;52.17;;;22.85;;
19339;SDS011;9804;52.350;6.684;2023-11-21T10:26:23;55.00;;;23.38;;
19339;SDS011;9804;52.350;6.684;2023-11-21T10:29:01;50.40;;;23.27;;
19339;SDS011;9804;52.350;6.684;2023-11-21T10:31:30;51.50;;;23.02;;
19339;SDS011;9804;52.350;6.684;2023-11-21T10:34:12;54.67;;;24.08;;
19339;SDS011;9804;52.350;6.684;2023-11-21T10:36:41;52.58;;;22.70;;
19339;SDS011;9804;52.350;6.684;2023-11-21T10:39:08;52.33;;;25.23;;
19339;SDS011;9804;52.350;6.684;2023-11-21T10:41:34;51.65;;;24.13;;
19339;SDS011;9804;52.350;6.684;2023-11-21T10:44:00;51.85;;;22.85;;
19339;SDS011;9804;52.350;6.684;2023-11-21T10:46:29;57.28;;;25.75;;
19339;SDS011;9804;52.350;6.684;2023-11-21T10:48:55;54.30;;;24.35;;
19339;SDS011;9804;52.350;6.684;2023-11-21T10:51:21;49.08;;;23.98;;
19339;SDS011;9804;52.350;6.684;2023-11-21T10:53:46;52.17;;;24.55;;
19339;SDS011;9804;52.350;6.684;2023-11-21T10:56:13;53.65;;;23.85;;
19339;SDS011;9804;52.350;6.684;2023-11-21T10:58:44;49.47;;;23.63;;
19339;SDS011;9804;52.350;6.684;2023-11-21T11:01:10;49.25;;;24.27;;
19339;SDS011;9804;52.350;6.684;2023-11-21T11:03:39;47.83;;;22.20;;
19339;SDS011;9804;52.350;6.684;2023-11-21T11:06:06;45.63;;;20.40;;
19339;SDS011;9804;52.350;6.684;2023-11-21T11:08:36;42.35;;;19.45;;
19339;SDS011;9804;52.350;6.684;2023-11-21T11:11:03;42.45;;;19.42;;
19339;SDS011;9804;52.350;6.684;2023-11-21T11:13:30;39.75;;;18.27;;
19339;SDS011;9804;52.350;6.684;2023-11-21T11:15:57;38.47;;;19.02;;
19339;SDS011;9804;52.350;6.684;2023-11-21T11:18:30;37.40;;;17.63;;
19339;SDS011;9804;52.350;6.684;2023-11-21T11:21:07;42.17;;;18.08;;
19339;SDS011;9804;52.350;6.684;2023-11-21T11:23:57;36.40;;;17.80;;
19339;SDS011;9804;52.350;6.684;2023-11-21T11:33:24;41.83;;;17.98;;
19339;SDS011;9804;52.350;6.684;2023-11-21T11:38:16;37.03;;;16.73;;
19339;SDS011;9804;52.350;6.684;2023-11-21T11:40:46;38.50;;;17.08;;
19339;SDS011;9804;52.350;6.684;2023-11-21T11:43:12;39.42;;;17.45;;
19339;SDS011;9804;52.350;6.684;2023-11-21T11:45:37;36.67;;;16.63;;
19339;SDS011;9804;52.350;6.684;2023-11-21T11:48:06;38.83;;;17.33;;
19339;SDS011;9804;52.350;6.684;2023-11-21T11:50:32;40.50;;;18.77;;
19339;SDS011;9804;52.350;6.684;2023-11-21T11:53:13;42.38;;;18.80;;
19339;SDS011;9804;52.350;6.684;2023-11-21T11:55:40;43.35;;;18.98;;
19339;SDS011;9804;52.350;6.684;2023-11-21T11:58:06;36.35;;;18.13;;
19339;SDS011;9804;52.350;6.684;2023-11-21T12:02:58;41.03;;;18.33;;
19339;SDS011;9804;52.350;6.684;2023-11-21T12:05:33;41.30;;;17.15;;
19339;SDS011;9804;52.350;6.684;2023-11-21T12:08:10;42.80;;;17.48;;
19339;SDS011;9804;52.350;6.684;2023-11-21T12:10:37;34.83;;;17.30;;
19339;SDS011;9804;52.350;6.684;2023-11-21T12:15:33;32.75;;;15.88;;
19339;SDS011;9804;52.350;6.684;2023-11-21T12:18:00;31.73;;;15.65;;
19339;SDS011;9804;52.350;6.684;2023-11-21T12:20:26;33.05;;;16.13;;
19339;SDS011;9804;52.350;6.684;2023-11-21T12:22:56;30.05;;;15.13;;
19339;SDS011;9804;52.350;6.684;2023-11-21T12:25:29;28.35;;;14.65;;
19339;SDS011;9804;52.350;6.684;2023-11-21T12:27:59;28.98;;;15.05;;
19339;SDS011;9804;52.350;6.684;2023-11-21T12:30:26;30.42;;;15.88;;
19339;SDS011;9804;52.350;6.684;2023-11-21T12:32:55;30.60;;;14.88;;
19339;SDS011;9804;52.350;6.684;2023-11-21T12:35:23;26.33;;;14.85;;
19339;SDS011;9804;52.350;6.684;2023-11-21T12:37:51;28.08;;;14.82;;
19339;SDS011;9804;52.350;6.684;2023-11-21T12:40:17;27.73;;;16.27;;
19339;SDS011;9804;52.350;6.684;2023-11-21T12:42:44;29.98;;;15.98;;
19339;SDS011;9804;52.350;6.684;2023-11-21T12:47:42;27.70;;;15.77;;
19339;SDS011;9804;52.350;6.684;2023-11-21T12:50:09;24.08;;;14.63;;
19339;SDS011;9804;52.350;6.684;2023-11-21T12:52:41;25.95;;;14.52;;
19339;SDS011;9804;52.350;6.684;2023-11-21T12:55:18;24.92;;;15.27;;
19339;SDS011;9804;52.350;6.684;2023-11-21T12:57:44;21.17;;;14.90;;
19339;SDS011;9804;52.350;6.684;2023-11-21T13:00:11;21.40;;;14.95;;
19339;SDS011;9804;52.350;6.684;2023-11-21T13:02:50;19.77;;;14.55;;
19339;SDS011;9804;52.350;6.684;2023-11-21T13:05:23;21.92;;;14.73;;
19339;SDS011;9804;52.350;6.684;2023-11-21T13:07:52;21.05;;;15.15;;
19339;SDS011;9804;52.350;6.684;2023-11-21T13:10:21;20.85;;;14.35;;
19339;SDS011;9804;52.350;6.684;2023-11-21T13:12:52;19.40;;;14.57;;
19339;SDS011;9804;52.350;6.684;2023-11-21T13:15:18;17.35;;;13.45;;
19339;SDS011;9804;52.350;6.684;2023-11-21T13:17:44;18.02;;;12.82;;
19339;SDS011;9804;52.350;6.684;2023-11-21T13:20:11;18.65;;;13.00;;
19339;SDS011;9804;52.350;6.684;2023-11-21T13:22:50;16.85;;;13.15;;
19339;SDS011;9804;52.350;6.684;2023-11-21T13:25:20;15.70;;;12.85;;
19339;SDS011;9804;52.350;6.684;2023-11-21T13:27:46;14.70;;;11.73;;
19339;SDS011;9804;52.350;6.684;2023-11-21T13:30:12;16.58;;;12.57;;
19339;SDS011;9804;52.350;6.684;2023-11-21T13:32:42;16.90;;;12.32;;
19339;SDS011;9804;52.350;6.684;2023-11-21T13:35:09;14.90;;;11.60;;
19339;SDS011;9804;52.350;6.684;2023-11-21T13:37:40;15.30;;;12.52;;
19339;SDS011;9804;52.350;6.684;2023-11-21T13:40:07;17.25;;;12.50;;
19339;SDS011;9804;52.350;6.684;2023-11-21T13:42:39;15.85;;;11.63;;
19339;SDS011;9804;52.350;6.684;2023-11-21T13:45:06;14.88;;;10.52;;
19339;SDS011;9804;52.350;6.684;2023-11-21T13:47:32;14.20;;;10.30;;
19339;SDS011;9804;52.350;6.684;2023-11-21T13:49:59;13.23;;;9.32;;
19339;SDS011;9804;52.350;6.684;2023-11-21T13:52:25;12.57;;;9.57;;
19339;SDS011;9804;52.350;6.684;2023-11-21T13:54:52;16.80;;;8.65;;
19339;SDS011;9804;52.350;6.684;2023-11-21T13:57:18;11.55;;;8.75;;
19339;SDS011;9804;52.350;6.684;2023-11-21T13:59:45;11.98;;;8.57;;
19339;SDS011;9804;52.350;6.684;2023-11-21T14:02:10;12.93;;;9.15;;
19339;SDS011;9804;52.350;6.684;2023-11-21T14:04:43;12.55;;;9.40;;
19339;SDS011;9804;52.350;6.684;2023-11-21T14:07:14;11.27;;;8.52;;
19339;SDS011;9804;52.350;6.684;2023-11-21T14:09:52;12.57;;;8.60;;
19339;SDS011;9804;52.350;6.684;2023-11-21T14:12:18;13.48;;;8.95;;
19339;SDS011;9804;52.350;6.684;2023-11-21T14:14:43;12.38;;;9.05;;
19339;SDS011;9804;52.350;6.684;2023-11-21T14:17:10;11.95;;;8.65;;
19339;SDS011;9804;52.350;6.684;2023-11-21T14:19:35;11.60;;;8.75;;
19339;SDS011;9804;52.350;6.684;2023-11-21T14:22:05;12.60;;;8.60;;
19339;SDS011;9804;52.350;6.684;2023-11-21T14:24:31;12.63;;;8.70;;
19339;SDS011;9804;52.350;6.684;2023-11-21T14:26:57;12.73;;;8.20;;
19339;SDS011;9804;52.350;6.684;2023-11-21T14:29:23;13.27;;;9.05;;
19339;SDS011;9804;52.350;6.684;2023-11-21T14:31:48;12.43;;;9.35;;
19339;SDS011;9804;52.350;6.684;2023-11-21T14:34:21;11.48;;;8.60;;
19339;SDS011;9804;52.350;6.684;2023-11-21T14:36:46;11.38;;;8.57;;
19339;SDS011;9804;52.350;6.684;2023-11-21T14:39:14;13.45;;;8.25;;
19339;SDS011;9804;52.350;6.684;2023-11-21T14:41:51;11.55;;;8.23;;
19339;SDS011;9804;52.350;6.684;2023-11-21T14:44:18;13.15;;;8.75;;
19339;SDS011;9804;52.350;6.684;2023-11-21T14:46:45;12.82;;;9.05;;
19339;SDS011;9804;52.350;6.684;2023-11-21T14:49:14;12.38;;;8.40;;
19339;SDS011;9804;52.350;6.684;2023-11-21T14:51:51;16.65;;;8.27;;